Hartford, Connecticut
Traffic Map
Current Weather Conditions
Hartford, Connecticut
Overcast Light Rain
Overcast
14°
Feels Like: 14°
Wind Chill: 14° Ceiling: 1500
Heat Index: 14° Visibility: 10mi
Dew Point: 13° Wind: 7mph
Humidity: 93% Direction: ° ()
Pressure: 30.01in Gusts: 0mph
Raw Report DataKHFD 010953Z AUTO VRB06KT 10SM -RA OVC015 14/13 A3001 RMK AO2 SLP163 P0001 T01440133 $
Traffic Incident Summary
Active as of:
Severity:
Category:
InformationThere was an issue retrieving the traffic information for this location. Please try a different location or try again shortly.
Advertisements
Track Severe Weather on mobile